Time;durP1;ratioP1;P1;durP2;ratioP2;P2;SDS_P1;SDS_P2;PMS_P1;PMS_P2;Temp;Humidity;BMP_temperature;BMP_pressure;BME280_temperature;BME280_humidity;BME280_pressure;Samples;Min_cycle;Max_cycle;Signal;HPM_P1;HPM_P2
2021/05/16 00:01:58;;;;;;;5.97;5.30;;;;;;;;;;781442;180;919409;-70
2021/05/16 00:04:24;;;;;;;7.73;5.80;;;;;;;;;;771324;178;919579;-69
2021/05/16 00:06:50;;;;;;;8.83;5.87;;;;;;;;;;769083;180;918439;-69
2021/05/16 00:09:16;;;;;;;5.97;4.87;;;;;;;;;;775526;180;918473;-70
2021/05/16 00:11:42;;;;;;;6.33;5.70;;;;;;;;;;773868;180;918831;-69
2021/05/16 00:14:07;;;;;;;8.27;5.83;;;;;;;;;;771415;180;922475;-69
2021/05/16 00:16:33;;;;;;;5.63;5.00;;;;;;;;;;775760;181;919082;-69
2021/05/16 00:18:59;;;;;;;13.23;5.03;;;;;;;;;;761718;180;2659639;-69
2021/05/16 00:21:25;;;;;;;6.63;5.90;;;;;;;;;;776429;180;919304;-69
2021/05/16 00:23:51;;;;;;;9.05;6.80;;;;;;;;;;775918;178;919128;-69
2021/05/16 00:26:17;;;;;;;6.27;5.53;;;;;;;;;;770553;180;918810;-69
2021/05/16 00:28:43;;;;;;;11.20;6.10;;;;;;;;;;775770;180;919374;-69
2021/05/16 00:31:08;;;;;;;13.20;7.20;;;;;;;;;;775635;180;918354;-69
2021/05/16 00:33:34;;;;;;;17.83;5.80;;;;;;;;;;774533;180;920471;-69
2021/05/16 00:36:00;;;;;;;9.43;6.40;;;;;;;;;;768789;181;918735;-69
2021/05/16 00:38:26;;;;;;;8.48;4.93;;;;;;;;;;769062;181;919700;-70
2021/05/16 00:40:52;;;;;;;7.10;5.50;;;;;;;;;;780907;180;920333;-69
2021/05/16 00:43:17;;;;;;;9.17;6.27;;;;;;;;;;772693;180;919286;-72
2021/05/16 00:45:47;;;;;;;8.27;5.83;;;;;;;;;;769977;180;919861;-69
2021/05/16 00:48:09;;;;;;;7.40;5.63;;;;;;;;;;779460;180;920583;-69
2021/05/16 00:50:36;;;;;;;11.57;5.37;;;;;;;;;;770289;180;919302;-69
2021/05/16 00:53:02;;;;;;;11.02;5.62;;;;;;;;;;774487;180;918432;-69
2021/05/16 00:55:27;;;;;;;8.70;4.93;;;;;;;;;;772995;178;919021;-69
2021/05/16 00:57:53;;;;;;;7.33;6.00;;;;;;;;;;777313;180;919660;-70
2021/05/16 01:00:20;;;;;;;14.10;5.30;;;;;;;;;;766309;180;919056;-67
2021/05/16 01:02:46;;;;;;;6.70;4.90;;;;;;;;;;773772;180;920800;-69
2021/05/16 01:05:12;;;;;;;6.43;5.73;;;;;;;;;;780595;176;916147;-69
2021/05/16 01:07:38;;;;;;;7.37;5.00;;;;;;;;;;779681;180;912814;-70
2021/05/16 01:10:04;;;;;;;6.40;5.00;;;;;;;;;;783315;177;629269;-69
2021/05/16 01:12:36;;;;;;;6.47;4.90;;;;;;;;;;774035;180;917147;-69
2021/05/16 01:14:58;;;;;;;6.70;5.20;;;;;;;;;;771640;180;916464;-70
2021/05/16 01:17:22;;;;;;;6.33;5.30;;;;;;;;;;774383;177;914391;-69
2021/05/16 01:19:47;;;;;;;9.50;5.30;;;;;;;;;;772599;177;919474;-68
2021/05/16 01:22:13;;;;;;;7.97;5.23;;;;;;;;;;781137;178;919375;-69
2021/05/16 01:24:43;;;;;;;7.17;5.77;;;;;;;;;;767930;180;920543;-69
2021/05/16 01:27:10;;;;;;;13.13;5.27;;;;;;;;;;769667;181;919555;-69
2021/05/16 01:29:36;;;;;;;6.70;5.63;;;;;;;;;;777290;180;919259;-69
2021/05/16 01:32:01;;;;;;;7.70;5.73;;;;;;;;;;765562;180;956780;-70
2021/05/16 01:34:27;;;;;;;9.73;6.00;;;;;;;;;;772445;179;918806;-70
2021/05/16 01:36:54;;;;;;;10.63;5.35;;;;;;;;;;778293;180;918470;-68
2021/05/16 01:39:20;;;;;;;7.47;5.43;;;;;;;;;;765515;182;918875;-70
2021/05/16 01:41:45;;;;;;;5.90;4.93;;;;;;;;;;774357;177;1022780;-70
2021/05/16 01:44:13;;;;;;;6.47;4.70;;;;;;;;;;778224;180;919515;-70
2021/05/16 01:46:37;;;;;;;6.20;5.60;;;;;;;;;;779841;181;628324;-70
2021/05/16 01:49:03;;;;;;;8.48;5.57;;;;;;;;;;774610;180;919644;-71
2021/05/16 01:51:29;;;;;;;7.63;5.70;;;;;;;;;;765254;181;918517;-69
2021/05/16 01:53:55;;;;;;;7.40;5.80;;;;;;;;;;775030;180;919233;-69
2021/05/16 01:56:21;;;;;;;8.33;5.30;;;;;;;;;;771756;180;919364;-70
2021/05/16 01:58:47;;;;;;;13.60;5.80;;;;;;;;;;773822;181;1021720;-70
2021/05/16 02:01:12;;;;;;;8.20;5.70;;;;;;;;;;779796;180;918678;-70
2021/05/16 02:03:40;;;;;;;5.43;4.90;;;;;;;;;;766426;181;918945;-69
2021/05/16 02:06:04;;;;;;;4.33;3.67;;;;;;;;;;766823;180;919694;-70
2021/05/16 02:08:31;;;;;;;5.53;4.30;;;;;;;;;;772342;180;919266;-69
2021/05/16 02:10:57;;;;;;;3.87;3.50;;;;;;;;;;777326;180;919242;-70
2021/05/16 02:13:23;;;;;;;5.53;4.70;;;;;;;;;;773773;180;918423;-68
2021/05/16 02:15:51;;;;;;;7.70;5.37;;;;;;;;;;776965;178;918926;-70
2021/05/16 02:18:15;;;;;;;5.47;4.40;;;;;;;;;;778980;179;919362;-70
2021/05/16 02:20:41;;;;;;;5.90;3.70;;;;;;;;;;775175;180;919841;-69
2021/05/16 02:23:07;;;;;;;5.50;3.40;;;;;;;;;;771389;181;918923;-69
2021/05/16 02:25:34;;;;;;;7.28;4.55;;;;;;;;;;777714;179;919768;-70
2021/05/16 02:27:58;;;;;;;5.73;4.77;;;;;;;;;;773352;180;919342;-69
2021/05/16 02:30:24;;;;;;;7.50;4.40;;;;;;;;;;774971;180;918490;-70
2021/05/16 02:32:50;;;;;;;6.83;5.23;;;;;;;;;;769533;180;918856;-69
2021/05/16 02:35:16;;;;;;;6.80;4.77;;;;;;;;;;778989;180;918658;-70
2021/05/16 02:37:42;;;;;;;5.13;3.73;;;;;;;;;;780370;180;639332;-69
2021/05/16 02:40:08;;;;;;;5.43;4.23;;;;;;;;;;777338;180;616749;-69
2021/05/16 02:42:34;;;;;;;6.33;4.43;;;;;;;;;;782964;177;618527;-70
2021/05/16 02:45:00;;;;;;;9.90;3.83;;;;;;;;;;778943;178;921549;-71
2021/05/16 02:47:25;;;;;;;6.40;3.80;;;;;;;;;;773459;179;1143865;-71
2021/05/16 02:49:51;;;;;;;4.07;3.43;;;;;;;;;;777215;180;919899;-70
2021/05/16 02:52:17;;;;;;;6.60;4.13;;;;;;;;;;767509;180;919204;-71
2021/05/16 02:54:43;;;;;;;4.93;3.53;;;;;;;;;;771779;180;919144;-70
2021/05/16 02:57:09;;;;;;;5.00;4.47;;;;;;;;;;774413;180;919446;-70
2021/05/16 02:59:35;;;;;;;7.43;3.93;;;;;;;;;;775235;180;919542;-70
2021/05/16 03:02:01;;;;;;;11.37;4.17;;;;;;;;;;773748;180;919361;-69
2021/05/16 03:04:26;;;;;;;4.37;3.57;;;;;;;;;;774519;180;920539;-69
2021/05/16 03:06:52;;;;;;;4.50;3.75;;;;;;;;;;778495;180;918535;-69
2021/05/16 03:09:18;;;;;;;4.20;3.70;;;;;;;;;;776148;180;927585;-69
2021/05/16 03:11:44;;;;;;;4.80;4.20;;;;;;;;;;774424;178;919380;-69
2021/05/16 03:14:10;;;;;;;5.47;4.97;;;;;;;;;;776622;180;918399;-69
2021/05/16 03:16:35;;;;;;;5.40;4.13;;;;;;;;;;768271;180;919577;-69
2021/05/16 03:19:01;;;;;;;5.10;4.30;;;;;;;;;;776100;179;851708;-69
2021/05/16 03:21:27;;;;;;;5.37;4.40;;;;;;;;;;779470;180;918749;-70
2021/05/16 03:23:53;;;;;;;7.30;3.73;;;;;;;;;;769931;180;919841;-69
2021/05/16 03:26:19;;;;;;;7.17;4.50;;;;;;;;;;766342;180;919305;-69
2021/05/16 03:28:45;;;;;;;6.80;4.87;;;;;;;;;;774661;179;920571;-69
2021/05/16 03:31:10;;;;;;;5.27;4.57;;;;;;;;;;780819;177;919968;-69
2021/05/16 03:33:36;;;;;;;6.00;4.63;;;;;;;;;;775276;180;919607;-69
2021/05/16 03:36:02;;;;;;;7.40;5.60;;;;;;;;;;771300;177;919337;-69
2021/05/16 03:38:28;;;;;;;6.50;5.90;;;;;;;;;;781483;180;922640;-69
2021/05/16 03:40:54;;;;;;;6.20;5.10;;;;;;;;;;777268;180;919986;-69
2021/05/16 03:43:20;;;;;;;8.67;5.43;;;;;;;;;;773164;180;919860;-71
2021/05/16 03:45:46;;;;;;;8.30;5.73;;;;;;;;;;776455;181;918443;-71
2021/05/16 03:48:11;;;;;;;8.60;7.33;;;;;;;;;;774371;180;925740;-70
2021/05/16 03:50:37;;;;;;;7.67;5.73;;;;;;;;;;774163;180;919288;-70
2021/05/16 03:53:03;;;;;;;6.73;6.03;;;;;;;;;;771068;181;952082;-71
2021/05/16 03:55:29;;;;;;;6.37;5.70;;;;;;;;;;771336;180;918869;-70
2021/05/16 03:57:55;;;;;;;7.80;7.00;;;;;;;;;;780319;180;616003;-70
2021/05/16 04:00:21;;;;;;;8.27;7.37;;;;;;;;;;777218;180;628597;-69
2021/05/16 04:02:47;;;;;;;7.53;5.83;;;;;;;;;;780482;180;916840;-69
2021/05/16 04:05:13;;;;;;;8.93;6.00;;;;;;;;;;776864;179;919839;-69
2021/05/16 04:07:39;;;;;;;7.40;6.13;;;;;;;;;;773534;180;919586;-69
2021/05/16 04:10:06;;;;;;;7.43;6.57;;;;;;;;;;776421;180;918492;-69
2021/05/16 04:12:31;;;;;;;9.30;7.00;;;;;;;;;;772227;178;919889;-71
2021/05/16 04:14:57;;;;;;;8.10;6.80;;;;;;;;;;772979;177;912517;-69
2021/05/16 04:17:23;;;;;;;7.87;6.30;;;;;;;;;;771972;178;922524;-68
2021/05/16 04:19:49;;;;;;;8.67;7.53;;;;;;;;;;774459;180;919423;-70
2021/05/16 04:22:14;;;;;;;8.77;7.10;;;;;;;;;;772633;177;916446;-70
2021/05/16 04:24:40;;;;;;;6.57;5.83;;;;;;;;;;773170;177;915108;-69
2021/05/16 04:27:06;;;;;;;8.70;7.20;;;;;;;;;;778440;177;915811;-70
2021/05/16 04:29:32;;;;;;;8.97;7.53;;;;;;;;;;771526;178;915719;-69
2021/05/16 04:31:58;;;;;;;18.43;7.20;;;;;;;;;;772924;177;912541;-69
2021/05/16 04:34:24;;;;;;;8.27;6.40;;;;;;;;;;776511;180;920473;-69
2021/05/16 04:36:49;;;;;;;9.00;8.07;;;;;;;;;;772772;180;919080;-68
2021/05/16 04:39:15;;;;;;;11.70;8.43;;;;;;;;;;774906;179;920761;-69
2021/05/16 04:41:41;;;;;;;13.03;8.60;;;;;;;;;;779957;177;918727;-69
2021/05/16 04:44:07;;;;;;;7.40;6.60;;;;;;;;;;775116;176;920209;-69
2021/05/16 04:46:33;;;;;;;7.90;7.10;;;;;;;;;;778612;177;639720;-68
2021/05/16 04:48:59;;;;;;;12.40;8.27;;;;;;;;;;779589;180;633792;-68
2021/05/16 04:51:25;;;;;;;10.47;7.27;;;;;;;;;;781138;180;630496;-69
2021/05/16 04:53:50;;;;;;;10.93;8.60;;;;;;;;;;776390;177;920253;-69
2021/05/16 04:56:16;;;;;;;11.37;9.00;;;;;;;;;;773214;180;919477;-69
2021/05/16 04:58:42;;;;;;;11.53;9.67;;;;;;;;;;778247;180;915124;-69
2021/05/16 05:01:08;;;;;;;12.63;9.48;;;;;;;;;;774396;180;919738;-69
2021/05/16 05:03:34;;;;;;;13.17;9.60;;;;;;;;;;772490;180;919041;-69
2021/05/16 05:06:00;;;;;;;15.30;10.47;;;;;;;;;;775619;178;918826;-68
2021/05/16 05:08:26;;;;;;;13.80;10.43;;;;;;;;;;771132;178;918803;-69
2021/05/16 05:10:52;;;;;;;14.13;11.87;;;;;;;;;;769975;180;919331;-68
2021/05/16 05:13:18;;;;;;;14.73;10.80;;;;;;;;;;774864;180;919524;-68
2021/05/16 05:15:44;;;;;;;23.23;12.17;;;;;;;;;;774888;180;915548;-69
2021/05/16 05:18:10;;;;;;;19.23;13.20;;;;;;;;;;774494;178;919605;-68
2021/05/16 05:20:35;;;;;;;16.90;12.13;;;;;;;;;;773254;180;919473;-67
2021/05/16 05:23:01;;;;;;;18.07;13.13;;;;;;;;;;777449;179;915032;-69
2021/05/16 05:25:27;;;;;;;21.07;16.80;;;;;;;;;;775058;180;915887;-71
2021/05/16 05:27:55;;;;;;;20.93;15.90;;;;;;;;;;774970;180;918694;-71
2021/05/16 05:30:21;;;;;;;23.30;18.90;;;;;;;;;;775943;180;919560;-71
2021/05/16 05:32:47;;;;;;;28.03;19.03;;;;;;;;;;771168;180;918997;-72
2021/05/16 05:35:13;;;;;;;28.67;22.47;;;;;;;;;;773365;180;919069;-72
2021/05/16 05:37:39;;;;;;;31.83;25.23;;;;;;;;;;772826;180;918658;-71
2021/05/16 05:40:05;;;;;;;29.57;23.90;;;;;;;;;;767629;180;918468;-71
2021/05/16 05:42:31;;;;;;;35.17;27.80;;;;;;;;;;769234;180;919013;-71
2021/05/16 05:44:57;;;;;;;37.30;25.87;;;;;;;;;;769206;178;919627;-71
2021/05/16 05:47:23;;;;;;;35.90;29.17;;;;;;;;;;777125;180;919207;-71
2021/05/16 05:49:48;;;;;;;37.80;29.87;;;;;;;;;;772196;179;932896;-71
2021/05/16 05:52:14;;;;;;;40.70;28.27;;;;;;;;;;776886;179;918738;-70
2021/05/16 05:54:40;;;;;;;34.30;27.20;;;;;;;;;;763588;180;3688675;-70
2021/05/16 05:57:06;;;;;;;39.07;26.93;;;;;;;;;;774109;181;632574;-71
2021/05/16 05:59:32;;;;;;;36.00;26.60;;;;;;;;;;775851;181;620438;-71
2021/05/16 06:01:58;;;;;;;34.83;26.50;;;;;;;;;;782802;178;614493;-72
2021/05/16 06:04:24;;;;;;;35.67;24.73;;;;;;;;;;772080;180;917271;-70
2021/05/16 06:06:50;;;;;;;30.70;23.13;;;;;;;;;;773174;180;918252;-71
2021/05/16 06:09:15;;;;;;;23.50;19.97;;;;;;;;;;773565;177;915136;-71
2021/05/16 06:11:41;;;;;;;23.63;18.23;;;;;;;;;;781566;177;910645;-71
2021/05/16 06:14:07;;;;;;;20.30;15.43;;;;;;;;;;778345;180;621532;-71
2021/05/16 06:16:33;;;;;;;15.00;13.23;;;;;;;;;;778837;180;624951;-70
2021/05/16 06:19:00;;;;;;;15.90;12.50;;;;;;;;;;780633;180;623055;-70
2021/05/16 06:21:25;;;;;;;11.90;10.60;;;;;;;;;;776142;180;1035528;-70
2021/05/16 06:24:07;;;;;;;11.18;9.98;;;;;;;;;;773165;177;925522;-70
2021/05/16 06:26:31;;;;;;;10.60;9.50;;;;;;;;;;770884;180;917281;-71
2021/05/16 06:28:57;;;;;;;11.23;9.23;;;;;;;;;;770898;180;1017907;-70
2021/05/16 06:31:23;;;;;;;12.17;10.40;;;;;;;;;;765171;180;1013664;-70
2021/05/16 06:33:49;;;;;;;11.10;9.67;;;;;;;;;;772544;178;912282;-70
2021/05/16 06:36:15;;;;;;;10.60;9.45;;;;;;;;;;777745;180;911531;-72
2021/05/16 06:38:40;;;;;;;10.17;8.93;;;;;;;;;;773400;177;920184;-70
2021/05/16 06:41:06;;;;;;;10.47;8.73;;;;;;;;;;771097;177;913989;-71
2021/05/16 06:43:32;;;;;;;13.70;10.47;;;;;;;;;;771964;180;1014977;-71
2021/05/16 06:45:58;;;;;;;13.48;10.25;;;;;;;;;;777160;180;910920;-71
2021/05/16 06:48:26;;;;;;;13.23;10.47;;;;;;;;;;777437;180;648046;-71
2021/05/16 06:50:50;;;;;;;10.97;9.77;;;;;;;;;;776237;180;646705;-71
2021/05/16 06:53:16;;;;;;;13.33;10.63;;;;;;;;;;778569;178;618669;-71
2021/05/16 06:55:41;;;;;;;12.00;10.47;;;;;;;;;;780015;177;620477;-71
2021/05/16 06:58:07;;;;;;;11.50;10.07;;;;;;;;;;779435;178;640778;-70
2021/05/16 07:00:33;;;;;;;16.60;10.83;;;;;;;;;;780128;180;655558;-71
2021/05/16 07:02:59;;;;;;;10.13;9.03;;;;;;;;;;772840;179;646977;-71
2021/05/16 07:05:25;;;;;;;12.80;10.70;;;;;;;;;;780941;180;629545;-72
2021/05/16 07:07:51;;;;;;;10.70;9.60;;;;;;;;;;774834;178;634400;-71
2021/05/16 07:10:16;;;;;;;9.83;8.20;;;;;;;;;;771523;181;638483;-71
2021/05/16 07:12:42;;;;;;;10.60;8.70;;;;;;;;;;774620;180;624055;-71
2021/05/16 07:15:12;;;;;;;13.63;8.03;;;;;;;;;;778028;181;616604;-71
2021/05/16 07:17:34;;;;;;;9.23;8.13;;;;;;;;;;782818;180;618464;-70
2021/05/16 07:20:00;;;;;;;14.60;8.50;;;;;;;;;;777551;180;636079;-69
2021/05/16 07:22:26;;;;;;;11.43;6.40;;;;;;;;;;774513;177;626060;-68
2021/05/16 07:24:52;;;;;;;6.80;5.90;;;;;;;;;;782651;178;625692;-69
2021/05/16 07:27:17;;;;;;;8.10;6.33;;;;;;;;;;774561;181;639341;-71
2021/05/16 07:29:43;;;;;;;11.07;6.40;;;;;;;;;;771939;181;628669;-70
2021/05/16 07:32:09;;;;;;;6.17;4.87;;;;;;;;;;780855;180;632075;-71
2021/05/16 07:34:35;;;;;;;7.13;5.27;;;;;;;;;;778254;177;640679;-72
2021/05/16 07:37:01;;;;;;;5.23;4.40;;;;;;;;;;777068;180;632512;-71
2021/05/16 07:39:27;;;;;;;5.97;4.63;;;;;;;;;;776734;178;639218;-71
2021/05/16 07:41:52;;;;;;;7.27;5.93;;;;;;;;;;782897;178;630127;-72
2021/05/16 07:44:18;;;;;;;6.87;5.93;;;;;;;;;;779495;177;635002;-73
2021/05/16 07:46:44;;;;;;;7.83;5.80;;;;;;;;;;777403;181;622418;-72
2021/05/16 07:49:10;;;;;;;8.00;5.63;;;;;;;;;;775974;180;624815;-73
2021/05/16 07:51:36;;;;;;;12.00;6.70;;;;;;;;;;767620;180;625661;-71
2021/05/16 07:54:02;;;;;;;12.27;6.20;;;;;;;;;;773049;180;624909;-71
2021/05/16 07:56:28;;;;;;;6.03;5.40;;;;;;;;;;781843;179;623686;-71
2021/05/16 07:58:54;;;;;;;7.00;5.80;;;;;;;;;;778236;178;629408;-71
2021/05/16 08:01:19;;;;;;;6.43;5.62;;;;;;;;;;777611;180;617260;-72
2021/05/16 08:03:46;;;;;;;8.03;5.60;;;;;;;;;;771641;180;658052;-70
2021/05/16 08:06:11;;;;;;;9.63;7.00;;;;;;;;;;767008;180;632889;-70
2021/05/16 08:08:37;;;;;;;7.47;6.33;;;;;;;;;;777550;178;620449;-71
2021/05/16 08:11:03;;;;;;;6.37;5.77;;;;;;;;;;776610;180;651905;-71
2021/05/16 08:13:29;;;;;;;6.50;5.90;;;;;;;;;;781671;178;618741;-71
2021/05/16 08:15:55;;;;;;;7.50;5.90;;;;;;;;;;779020;180;629035;-71
2021/05/16 08:18:21;;;;;;;6.70;5.93;;;;;;;;;;780148;179;630946;-71
2021/05/16 08:20:47;;;;;;;7.63;6.27;;;;;;;;;;783429;178;632010;-71
2021/05/16 08:23:13;;;;;;;10.07;7.70;;;;;;;;;;780596;180;629837;-71
2021/05/16 08:25:39;;;;;;;9.60;7.93;;;;;;;;;;776651;177;666552;-71
2021/05/16 08:28:05;;;;;;;9.32;7.78;;;;;;;;;;779009;180;644945;-70
2021/05/16 08:30:31;;;;;;;9.13;8.10;;;;;;;;;;773870;181;623171;-70
2021/05/16 08:32:56;;;;;;;8.43;7.60;;;;;;;;;;763808;180;628125;-71
2021/05/16 08:35:22;;;;;;;11.23;8.63;;;;;;;;;;777527;178;639748;-70
2021/05/16 08:37:48;;;;;;;8.93;8.03;;;;;;;;;;781932;178;626620;-71
2021/05/16 08:40:15;;;;;;;9.10;8.10;;;;;;;;;;780097;177;625533;-70
2021/05/16 08:42:40;;;;;;;10.90;8.90;;;;;;;;;;777739;179;628933;-70
2021/05/16 08:45:10;;;;;;;8.73;7.67;;;;;;;;;;782485;178;630287;-69
2021/05/16 08:47:33;;;;;;;9.40;7.80;;;;;;;;;;776354;181;694680;-70
2021/05/16 08:49:59;;;;;;;8.40;7.50;;;;;;;;;;774221;178;629449;-70
2021/05/16 08:52:24;;;;;;;8.37;6.97;;;;;;;;;;782302;179;625891;-71
2021/05/16 08:54:53;;;;;;;5.23;4.73;;;;;;;;;;774488;179;622627;-71
2021/05/16 08:57:16;;;;;;;6.67;5.60;;;;;;;;;;776099;177;651202;-71
2021/05/16 08:59:48;;;;;;;6.90;6.20;;;;;;;;;;776430;180;637683;-69
2021/05/16 09:02:14;;;;;;;7.50;6.80;;;;;;;;;;781164;180;633762;-70
2021/05/16 09:04:40;;;;;;;7.03;5.30;;;;;;;;;;777768;180;627361;-71
2021/05/16 09:07:06;;;;;;;11.13;5.57;;;;;;;;;;771837;178;653782;-71
2021/05/16 09:09:33;;;;;;;4.80;4.33;;;;;;;;;;773532;180;629407;-70
2021/05/16 09:11:59;;;;;;;4.40;4.00;;;;;;;;;;776025;180;629681;-71
2021/05/16 09:14:31;;;;;;;5.33;3.77;;;;;;;;;;775159;179;619558;-70
2021/05/16 09:16:57;;;;;;;5.80;4.57;;;;;;;;;;778805;178;626048;-70
2021/05/16 09:19:22;;;;;;;4.97;4.17;;;;;;;;;;776973;180;1599975;-69
2021/05/16 09:21:48;;;;;;;4.17;3.67;;;;;;;;;;774759;180;638101;-69
2021/05/16 09:24:14;;;;;;;5.30;4.73;;;;;;;;;;776335;179;627836;-70
2021/05/16 09:26:46;;;;;;;9.83;4.70;;;;;;;;;;782707;179;632327;-70
2021/05/16 09:29:17;;;;;;;4.50;3.77;;;;;;;;;;776096;180;626500;-70
2021/05/16 09:31:43;;;;;;;4.23;3.83;;;;;;;;;;777408;177;626346;-69
2021/05/16 09:34:09;;;;;;;4.37;3.97;;;;;;;;;;777915;179;730106;-68
2021/05/16 09:36:34;;;;;;;3.20;2.90;;;;;;;;;;779133;178;624354;-68
2021/05/16 09:39:06;;;;;;;5.23;3.30;;;;;;;;;;776456;180;629437;-69
2021/05/16 09:41:32;;;;;;;8.07;2.93;;;;;;;;;;777584;179;651229;-69
2021/05/16 09:43:58;;;;;;;3.50;2.53;;;;;;;;;;778279;178;622756;-69
2021/05/16 09:46:24;;;;;;;3.17;2.63;;;;;;;;;;778539;180;668022;-68
2021/05/16 09:48:50;;;;;;;4.30;2.53;;;;;;;;;;777532;180;629520;-68
2021/05/16 09:51:18;;;;;;;3.70;2.70;;;;;;;;;;773555;180;631251;-68
2021/05/16 09:53:45;;;;;;;2.73;2.17;;;;;;;;;;775637;180;642461;-67
2021/05/16 09:56:17;;;;;;;2.77;1.60;;;;;;;;;;774986;180;635612;-68
2021/05/16 09:58:42;;;;;;;2.10;1.60;;;;;;;;;;776414;179;642255;-68
2021/05/16 10:01:08;;;;;;;3.10;2.07;;;;;;;;;;774486;180;633245;-68
2021/05/16 10:03:34;;;;;;;2.80;1.90;;;;;;;;;;777956;180;628434;-69
2021/05/16 10:06:00;;;;;;;3.17;2.40;;;;;;;;;;776994;179;622864;-68
2021/05/16 10:08:26;;;;;;;2.30;1.80;;;;;;;;;;777732;180;616186;-68
2021/05/16 10:10:52;;;;;;;2.90;2.07;;;;;;;;;;779030;178;617183;-69
2021/05/16 10:13:17;;;;;;;3.33;2.07;;;;;;;;;;772946;180;626711;-68
2021/05/16 10:15:43;;;;;;;2.58;1.73;;;;;;;;;;776313;180;661572;-68
2021/05/16 10:18:09;;;;;;;2.40;1.43;;;;;;;;;;777717;180;617966;-68
2021/05/16 10:20:37;;;;;;;2.77;1.47;;;;;;;;;;779198;180;637041;-67
2021/05/16 10:23:03;;;;;;;2.00;1.33;;;;;;;;;;779416;180;667867;-68
2021/05/16 10:25:33;;;;;;;4.30;1.47;;;;;;;;;;775398;178;627394;-68
2021/05/16 10:27:59;;;;;;;3.67;1.83;;;;;;;;;;780854;180;679941;-69
2021/05/16 10:30:27;;;;;;;3.03;1.73;;;;;;;;;;776910;180;622750;-68
2021/05/16 10:32:51;;;;;;;8.60;2.50;;;;;;;;;;765572;180;2271670;-68
2021/05/16 10:35:16;;;;;;;2.83;1.50;;;;;;;;;;776191;180;626601;-69
2021/05/16 10:37:42;;;;;;;8.00;1.73;;;;;;;;;;783585;179;624612;-68
2021/05/16 10:40:27;;;;;;;2.20;1.60;;;;;;;;;;779223;179;639944;-68
2021/05/16 10:42:54;;;;;;;3.67;1.70;;;;;;;;;;778227;180;633809;-69
2021/05/16 10:45:21;;;;;;;2.47;1.77;;;;;;;;;;778055;180;619387;-69
2021/05/16 10:47:49;;;;;;;3.90;1.60;;;;;;;;;;781546;179;641347;-69
2021/05/16 10:50:13;;;;;;;2.77;1.30;;;;;;;;;;775575;180;640392;-69
2021/05/16 10:52:39;;;;;;;4.10;2.40;;;;;;;;;;771572;180;629049;-68
2021/05/16 10:55:06;;;;;;;2.13;1.50;;;;;;;;;;772688;178;629486;-68
2021/05/16 10:57:34;;;;;;;2.30;1.33;;;;;;;;;;772813;180;615170;-70
2021/05/16 11:00:00;;;;;;;4.23;1.40;;;;;;;;;;775121;180;633459;-68
2021/05/16 11:02:31;;;;;;;2.10;1.30;;;;;;;;;;773728;180;630449;-68
2021/05/16 11:04:57;;;;;;;2.30;1.50;;;;;;;;;;779213;180;629975;-68
2021/05/16 11:07:29;;;;;;;2.50;1.33;;;;;;;;;;775460;180;630128;-68
2021/05/16 11:09:55;;;;;;;2.20;1.33;;;;;;;;;;776130;180;623586;-69
2021/05/16 11:12:21;;;;;;;3.50;1.67;;;;;;;;;;773245;179;637839;-69
2021/05/16 11:14:46;;;;;;;2.57;1.30;;;;;;;;;;778875;180;637132;-70
2021/05/16 11:17:16;;;;;;;2.87;1.30;;;;;;;;;;769940;180;626311;-68
2021/05/16 11:19:38;;;;;;;3.00;1.47;;;;;;;;;;775029;180;630349;-69
2021/05/16 11:22:08;;;;;;;4.80;1.60;;;;;;;;;;780999;180;628500;-68
2021/05/16 11:24:34;;;;;;;3.70;1.30;;;;;;;;;;780011;180;625175;-69
2021/05/16 11:27:00;;;;;;;2.00;1.03;;;;;;;;;;778566;177;628210;-69
2021/05/16 11:29:26;;;;;;;2.30;1.40;;;;;;;;;;777028;177;709231;-69
2021/05/16 11:31:52;;;;;;;4.20;1.67;;;;;;;;;;780586;181;631774;-69
2021/05/16 11:34:18;;;;;;;2.10;1.00;;;;;;;;;;775489;177;625015;-70
2021/05/16 11:36:44;;;;;;;2.20;1.73;;;;;;;;;;773022;177;631732;-68
2021/05/16 11:39:10;;;;;;;2.53;1.17;;;;;;;;;;779813;180;650476;-68
2021/05/16 11:41:36;;;;;;;3.20;1.30;;;;;;;;;;779099;180;616784;-69
2021/05/16 11:44:02;;;;;;;2.13;1.30;;;;;;;;;;776314;180;641687;-69
2021/05/16 11:46:28;;;;;;;2.45;1.10;;;;;;;;;;777616;177;628623;-68
2021/05/16 11:48:54;;;;;;;2.33;1.20;;;;;;;;;;770073;182;624484;-69
2021/05/16 11:51:20;;;;;;;5.37;1.43;;;;;;;;;;777704;178;623457;-68
2021/05/16 11:53:51;;;;;;;2.67;1.40;;;;;;;;;;776810;177;624369;-68
2021/05/16 11:56:17;;;;;;;3.30;1.40;;;;;;;;;;782195;180;619458;-68
2021/05/16 11:58:47;;;;;;;3.20;1.20;;;;;;;;;;780331;180;632683;-68
2021/05/16 12:01:13;;;;;;;3.03;1.43;;;;;;;;;;777885;178;623920;-68
2021/05/16 12:03:53;;;;;;;2.00;1.10;;;;;;;;;;777880;180;616539;-69
2021/05/16 12:06:19;;;;;;;3.40;1.20;;;;;;;;;;777767;180;616839;-68
2021/05/16 12:08:45;;;;;;;2.13;1.10;;;;;;;;;;768046;181;632396;-68
2021/05/16 12:11:11;;;;;;;2.10;1.30;;;;;;;;;;759531;181;627210;-69
2021/05/16 12:13:37;;;;;;;2.87;1.60;;;;;;;;;;776193;178;635588;-68
2021/05/16 12:16:18;;;;;;;3.20;1.10;;;;;;;;;;780215;180;927441;-67
2021/05/16 12:18:44;;;;;;;2.33;1.50;;;;;;;;;;778329;180;616134;-69
2021/05/16 12:21:10;;;;;;;2.73;1.20;;;;;;;;;;771421;180;632931;-69
2021/05/16 12:23:36;;;;;;;3.80;2.20;;;;;;;;;;776925;180;641830;-68
2021/05/16 12:26:03;;;;;;;2.50;1.50;;;;;;;;;;776481;180;616837;-70
2021/05/16 12:28:28;;;;;;;2.70;1.43;;;;;;;;;;771843;179;642417;-70
2021/05/16 12:30:54;;;;;;;4.40;1.50;;;;;;;;;;777221;181;619259;-67
2021/05/16 12:33:19;;;;;;;3.10;1.50;;;;;;;;;;781675;180;627584;-69
2021/05/16 12:35:47;;;;;;;2.00;1.20;;;;;;;;;;772000;180;625716;-68
2021/05/16 12:38:13;;;;;;;3.30;1.60;;;;;;;;;;772196;180;633437;-69
2021/05/16 12:40:39;;;;;;;4.80;1.40;;;;;;;;;;776557;180;740584;-67
2021/05/16 12:43:05;;;;;;;5.27;1.87;;;;;;;;;;779185;181;644339;-68
2021/05/16 12:45:31;;;;;;;2.70;1.27;;;;;;;;;;773164;179;639515;-68
2021/05/16 12:47:57;;;;;;;3.60;1.20;;;;;;;;;;777348;180;628965;-68
2021/05/16 12:50:28;;;;;;;2.30;1.43;;;;;;;;;;780984;180;625657;-67
2021/05/16 12:52:54;;;;;;;6.07;1.60;;;;;;;;;;777708;179;648219;-68
2021/05/16 12:55:25;;;;;;;2.40;1.50;;;;;;;;;;776384;178;627725;-68
2021/05/16 12:58:00;;;;;;;2.63;1.37;;;;;;;;;;774561;180;647389;-68
2021/05/16 13:00:26;;;;;;;4.60;1.10;;;;;;;;;;782699;176;648270;-68
2021/05/16 13:02:52;;;;;;;2.47;1.20;;;;;;;;;;783834;180;635766;-69
2021/05/16 13:05:18;;;;;;;2.97;1.13;;;;;;;;;;762691;181;633329;-68
2021/05/16 13:07:47;;;;;;;2.90;1.33;;;;;;;;;;780357;177;625374;-67
2021/05/16 13:10:18;;;;;;;2.50;1.20;;;;;;;;;;780524;180;649177;-68
2021/05/16 13:12:44;;;;;;;3.60;1.33;;;;;;;;;;764805;180;639138;-68
2021/05/16 13:15:11;;;;;;;2.43;1.30;;;;;;;;;;776530;180;633958;-67
2021/05/16 13:17:37;;;;;;;5.53;1.20;;;;;;;;;;775911;180;618758;-68
2021/05/16 13:20:03;;;;;;;2.30;1.37;;;;;;;;;;780703;178;630731;-66
2021/05/16 13:22:36;;;;;;;4.43;1.60;;;;;;;;;;776289;180;618130;-67
2021/05/16 13:25:04;;;;;;;4.63;1.60;;;;;;;;;;777602;180;626596;-68
2021/05/16 13:27:29;;;;;;;2.17;1.00;;;;;;;;;;775796;180;630322;-68
2021/05/16 13:29:56;;;;;;;5.10;1.27;;;;;;;;;;762763;182;1052049;-68
2021/05/16 13:32:22;;;;;;;4.17;1.30;;;;;;;;;;770688;181;630219;-67
2021/05/16 13:34:49;;;;;;;4.37;1.40;;;;;;;;;;778941;180;634164;-67
2021/05/16 13:37:14;;;;;;;4.40;1.30;;;;;;;;;;778987;180;633295;-68
2021/05/16 13:39:40;;;;;;;8.30;1.37;;;;;;;;;;767938;178;641040;-68
2021/05/16 13:42:07;;;;;;;2.20;1.27;;;;;;;;;;777103;180;636736;-68
2021/05/16 13:44:33;;;;;;;3.00;1.33;;;;;;;;;;780111;180;724812;-67
2021/05/16 13:46:59;;;;;;;4.93;1.43;;;;;;;;;;778016;179;615546;-67
2021/05/16 13:49:25;;;;;;;5.93;1.60;;;;;;;;;;773147;180;653171;-66
2021/05/16 13:51:51;;;;;;;4.43;1.87;;;;;;;;;;775674;181;641192;-67
2021/05/16 13:54:16;;;;;;;3.67;1.50;;;;;;;;;;776055;180;639735;-68
2021/05/16 13:56:42;;;;;;;4.27;1.03;;;;;;;;;;777840;180;618215;-67
2021/05/16 13:59:08;;;;;;;3.57;1.30;;;;;;;;;;778374;180;624859;-67
2021/05/16 14:01:34;;;;;;;3.13;1.30;;;;;;;;;;778983;180;635472;-66
2021/05/16 14:04:00;;;;;;;5.50;1.87;;;;;;;;;;775369;180;630160;-68
2021/05/16 14:06:26;;;;;;;1.97;1.03;;;;;;;;;;776996;181;638864;-66
2021/05/16 14:08:52;;;;;;;2.50;1.10;;;;;;;;;;781245;178;626638;-68
2021/05/16 14:11:17;;;;;;;3.93;1.27;;;;;;;;;;778140;178;633302;-69
2021/05/16 14:13:45;;;;;;;3.47;1.23;;;;;;;;;;780557;179;651590;-67
2021/05/16 14:16:11;;;;;;;2.93;1.20;;;;;;;;;;778936;180;617655;-67
2021/05/16 14:18:37;;;;;;;3.53;1.30;;;;;;;;;;781690;178;631061;-69
2021/05/16 14:21:03;;;;;;;3.10;1.37;;;;;;;;;;777981;179;632354;-68